createdAt,value
2018-06-12T00:02:13.511Z,16.10
2018-06-12T00:04:41.828Z,16.02
2018-06-12T00:07:10.269Z,16.03
2018-06-12T00:09:38.621Z,15.95
2018-06-12T00:12:07.070Z,15.96
2018-06-12T00:14:35.617Z,16.02
2018-06-12T00:17:04.260Z,16.15
2018-06-12T00:19:32.585Z,16.10
2018-06-12T00:22:00.906Z,16.03
2018-06-12T00:24:29.232Z,15.93
2018-06-12T00:26:57.553Z,15.97
2018-06-12T00:29:25.931Z,15.95
2018-06-12T00:31:54.250Z,15.86
2018-06-12T00:34:22.612Z,15.78
2018-06-12T00:36:50.932Z,15.75
2018-06-12T00:39:19.293Z,15.99
2018-06-12T00:41:47.654Z,15.97
2018-06-12T00:44:16.918Z,15.94
2018-06-12T00:46:45.274Z,16.01
2018-06-12T00:49:13.641Z,15.92
2018-06-12T00:51:42.026Z,15.86
2018-06-12T00:54:10.392Z,15.70
2018-06-12T00:56:49.997Z,15.63
2018-06-12T00:59:18.319Z,15.49
2018-06-12T01:01:46.624Z,15.46
2018-06-12T01:04:15.591Z,15.39
2018-06-12T01:06:44.562Z,15.35
2018-06-12T01:09:12.929Z,15.33
2018-06-12T01:11:42.156Z,15.27
2018-06-12T01:14:11.557Z,15.19
2018-06-12T01:16:39.913Z,15.14
2018-06-12T01:19:08.226Z,15.08
2018-06-12T01:21:36.572Z,15.08
2018-06-12T01:24:05.037Z,15.00
2018-06-12T01:26:34.266Z,14.92
2018-06-12T01:29:03.465Z,14.90
2018-06-12T01:31:31.799Z,14.94
2018-06-12T01:34:00.105Z,14.97
2018-06-12T01:36:28.412Z,14.98
2018-06-12T01:38:56.752Z,14.87
2018-06-12T01:41:25.078Z,15.01
2018-06-12T01:43:53.421Z,14.96
2018-06-12T01:46:22.296Z,14.96
2018-06-12T01:48:50.640Z,14.98
2018-06-12T01:51:20.038Z,14.91
2018-06-12T01:53:49.316Z,14.89
2018-06-12T01:56:17.719Z,14.86
2018-06-12T01:58:46.065Z,14.79
2018-06-12T02:01:15.248Z,14.69
2018-06-12T02:03:43.601Z,14.57
2018-06-12T02:06:14.117Z,14.73
2018-06-12T02:08:42.570Z,14.54
2018-06-12T02:11:11.742Z,14.71
2018-06-12T02:13:40.065Z,14.64
2018-06-12T02:16:08.365Z,14.69
2018-06-12T02:18:36.664Z,14.58
2018-06-12T02:21:05.080Z,14.42
2018-06-12T02:23:33.396Z,14.33
2018-06-12T02:26:01.711Z,14.30
2018-06-12T02:28:30.068Z,14.23
2018-06-12T02:30:58.386Z,14.12
2018-06-12T02:33:26.712Z,14.13
2018-06-12T02:35:55.077Z,14.21
2018-06-12T02:38:23.446Z,14.15
2018-06-12T02:40:51.756Z,14.14
2018-06-12T02:43:20.110Z,14.10
2018-06-12T02:45:48.429Z,14.09
2018-06-12T02:48:16.737Z,14.07
2018-06-12T02:50:46.081Z,14.05
2018-06-12T02:53:15.372Z,14.24
2018-06-12T02:55:43.789Z,14.19
2018-06-12T02:58:12.126Z,14.19
2018-06-12T03:00:40.436Z,14.24
2018-06-12T03:03:08.753Z,14.27
2018-06-12T03:05:37.065Z,14.29
2018-06-12T03:08:05.571Z,14.34
2018-06-12T03:10:33.928Z,14.39
2018-06-12T03:13:02.255Z,14.44
2018-06-12T03:15:30.689Z,14.51
2018-06-12T03:17:59.114Z,14.61
2018-06-12T03:20:38.654Z,14.63
2018-06-12T03:23:07.029Z,14.58
2018-06-12T03:25:35.333Z,14.55
2018-06-12T03:28:04.126Z,14.62
2018-06-12T03:30:32.452Z,14.65
2018-06-12T03:33:01.675Z,14.67
2018-06-12T03:35:30.891Z,14.69
2018-06-12T03:37:59.314Z,14.80
2018-06-12T03:40:27.746Z,14.89
2018-06-12T03:42:56.068Z,14.89
2018-06-12T03:45:24.558Z,14.92
2018-06-12T03:47:53.745Z,14.90
2018-06-12T03:50:22.113Z,15.03
2018-06-12T03:52:51.228Z,15.08
2018-06-12T03:55:20.677Z,14.99
2018-06-12T03:57:49.925Z,15.09
2018-06-12T04:00:19.166Z,15.14
2018-06-12T04:02:48.477Z,15.20
2018-06-12T04:05:17.709Z,15.18
2018-06-12T04:07:47.158Z,15.26
2018-06-12T04:10:16.355Z,15.31
2018-06-12T04:12:45.630Z,15.30
2018-06-12T04:15:14.976Z,15.34
2018-06-12T04:17:44.344Z,15.27
2018-06-12T04:20:12.653Z,15.38
2018-06-12T04:22:41.020Z,15.37
2018-06-12T04:25:09.371Z,15.31
2018-06-12T04:27:37.916Z,15.23
2018-06-12T04:30:06.245Z,15.30
2018-06-12T04:32:34.593Z,15.37
2018-06-12T04:35:03.011Z,15.55
2018-06-12T04:37:31.328Z,15.54
2018-06-12T04:39:59.680Z,15.52
2018-06-12T04:42:27.996Z,15.55
2018-06-12T04:44:56.425Z,15.63
2018-06-12T04:47:24.948Z,15.62
2018-06-12T04:49:53.287Z,15.87
2018-06-12T04:52:21.646Z,15.74
2018-06-12T04:54:49.965Z,15.72
2018-06-12T04:57:18.331Z,15.79
2018-06-12T04:59:46.737Z,15.73
2018-06-12T05:02:15.168Z,15.87
2018-06-12T05:04:43.533Z,15.76
2018-06-12T05:07:12.906Z,15.81
2018-06-12T05:09:41.226Z,15.82
2018-06-12T05:12:10.589Z,15.78
2018-06-12T05:14:38.909Z,15.78
2018-06-12T05:17:07.342Z,15.82
2018-06-12T05:19:35.777Z,15.80
2018-06-12T05:22:04.121Z,15.83
2018-06-12T05:24:32.477Z,15.83
2018-06-12T05:27:00.789Z,15.94
2018-06-12T05:29:30.028Z,15.97
2018-06-12T05:31:58.344Z,15.98
2018-06-12T05:34:26.687Z,15.95
2018-06-12T05:36:55.005Z,15.92
2018-06-12T05:39:23.388Z,16.12
2018-06-12T05:41:51.699Z,16.02
2018-06-12T05:44:20.020Z,16.00
2018-06-12T05:46:48.441Z,16.14
2018-06-12T05:49:16.741Z,16.33
2018-06-12T05:51:45.941Z,16.34
2018-06-12T05:54:14.568Z,16.33
2018-06-12T05:56:42.888Z,16.10
2018-06-12T05:59:11.303Z,16.07
2018-06-12T06:01:39.633Z,16.15
2018-06-12T06:04:07.960Z,16.05
2018-06-12T06:06:36.417Z,16.11
2018-06-12T06:09:07.912Z,16.32
2018-06-12T06:11:36.701Z,16.43
2018-06-12T06:14:06.076Z,16.48
2018-06-12T06:16:34.452Z,16.47
2018-06-12T06:19:02.776Z,16.65
2018-06-12T06:21:31.097Z,16.80
2018-06-12T06:23:59.589Z,16.98
2018-06-12T06:26:27.908Z,17.27
2018-06-12T06:28:56.286Z,17.20
2018-06-12T06:31:25.496Z,17.10
2018-06-12T06:33:53.826Z,17.10
2018-06-12T06:36:23.106Z,17.16
2018-06-12T06:38:51.419Z,16.94
2018-06-12T06:41:19.737Z,16.91
2018-06-12T06:43:48.148Z,16.84
2018-06-12T06:46:17.125Z,16.84
2018-06-12T06:48:45.457Z,16.70
2018-06-12T06:51:13.788Z,16.48
2018-06-12T06:53:43.096Z,16.54
2018-06-12T06:56:11.397Z,16.37
2018-06-12T06:58:39.703Z,16.56
2018-06-12T07:01:08.025Z,16.81
2018-06-12T07:03:36.346Z,16.73
2018-06-12T07:06:04.776Z,16.61
2018-06-12T07:08:33.101Z,16.68
2018-06-12T07:11:01.509Z,16.64
2018-06-12T07:13:30.789Z,16.52
2018-06-12T07:16:00.118Z,16.76
2018-06-12T07:18:29.317Z,16.70
2018-06-12T07:21:00.925Z,16.75
2018-06-12T07:23:30.121Z,16.85
2018-06-12T07:25:59.797Z,16.68
2018-06-12T07:28:28.120Z,16.90
2018-06-12T07:30:56.531Z,17.22
2018-06-12T07:33:25.237Z,17.26
2018-06-12T07:35:54.628Z,17.71
2018-06-12T07:38:25.410Z,17.69
2018-06-12T07:40:53.778Z,17.68
2018-06-12T07:43:22.975Z,17.40
2018-06-12T07:45:51.353Z,17.56
2018-06-12T07:48:20.560Z,17.58
2018-06-12T07:50:48.885Z,17.54
2018-06-12T07:53:18.231Z,17.73
2018-06-12T07:55:46.607Z,17.93
2018-06-12T07:58:16.012Z,17.79
2018-06-12T08:00:44.332Z,17.58
2018-06-12T08:03:13.729Z,17.77
2018-06-12T08:05:43.093Z,18.09
2018-06-12T08:08:11.475Z,18.02
2018-06-12T08:10:39.916Z,17.90
2018-06-12T08:13:09.177Z,18.02
2018-06-12T08:15:38.404Z,18.24
2018-06-12T08:18:06.903Z,18.41
2018-06-12T08:20:35.218Z,18.53
2018-06-12T08:23:03.838Z,18.42
2018-06-12T08:25:32.158Z,18.70
2018-06-12T08:28:01.344Z,19.09
2018-06-12T08:30:35.214Z,18.75
2018-06-12T08:33:03.723Z,18.67
2018-06-12T08:35:32.234Z,18.35
2018-06-12T08:38:00.621Z,18.28
2018-06-12T08:40:28.928Z,18.24
2018-06-12T08:42:57.308Z,18.20
2018-06-12T08:45:25.645Z,18.11
2018-06-12T08:47:54.029Z,18.24
2018-06-12T08:50:22.348Z,18.18
2018-06-12T08:52:50.676Z,18.10
2018-06-12T08:55:19.851Z,17.88
2018-06-12T08:57:49.109Z,18.02
2018-06-12T09:00:17.424Z,18.11
2018-06-12T09:02:46.714Z,18.27
2018-06-12T09:05:15.049Z,18.20
2018-06-12T09:07:43.365Z,18.50
2018-06-12T09:10:11.673Z,18.55
2018-06-12T09:12:39.992Z,18.64
2018-06-12T09:15:08.316Z,18.74
2018-06-12T09:17:36.665Z,19.09
2018-06-12T09:20:05.181Z,19.22
2018-06-12T09:22:33.492Z,19.23
2018-06-12T09:25:01.897Z,19.52
2018-06-12T09:27:34.412Z,19.67
2018-06-12T09:30:02.759Z,19.92
2018-06-12T09:32:31.118Z,20.14
2018-06-12T09:34:59.442Z,20.06
2018-06-12T09:37:27.820Z,19.76
2018-06-12T09:39:56.223Z,19.28
2018-06-12T09:42:24.523Z,19.11
2018-06-12T09:44:52.840Z,19.00
2018-06-12T09:47:22.231Z,19.14
2018-06-12T09:49:50.653Z,19.09
2018-06-12T09:52:18.965Z,19.12
2018-06-12T09:54:47.322Z,19.43
2018-06-12T09:57:15.626Z,19.40
2018-06-12T09:59:44.850Z,19.54
2018-06-12T10:02:13.177Z,19.54
2018-06-12T10:04:41.592Z,19.94
2018-06-12T10:07:10.908Z,19.77
2018-06-12T10:09:39.277Z,19.69
2018-06-12T10:12:08.539Z,19.07
2018-06-12T10:14:37.784Z,19.23
2018-06-12T10:17:06.983Z,19.42
2018-06-12T10:19:35.285Z,19.58
2018-06-12T10:22:03.616Z,19.64
2018-06-12T10:24:32.945Z,19.94
2018-06-12T10:27:02.245Z,20.28
2018-06-12T10:29:30.553Z,20.72
2018-06-12T10:31:59.833Z,20.93
2018-06-12T10:34:29.081Z,21.13
2018-06-12T10:36:58.392Z,20.77
2018-06-12T10:39:27.833Z,20.93
2018-06-12T10:41:57.025Z,20.91
2018-06-12T10:44:25.352Z,20.31
2018-06-12T10:46:54.548Z,20.54
2018-06-12T10:49:23.865Z,20.68
2018-06-12T10:51:53.082Z,20.78
2018-06-12T10:54:21.676Z,20.77
2018-06-12T10:56:50.969Z,20.83
2018-06-12T10:59:19.365Z,20.75
2018-06-12T11:01:48.708Z,20.71
2018-06-12T11:04:17.069Z,20.53
2018-06-12T11:06:46.326Z,20.61
2018-06-12T11:09:14.696Z,20.69
2018-06-12T11:11:43.921Z,20.81
2018-06-12T11:14:12.233Z,20.86
2018-06-12T11:16:40.555Z,21.17
2018-06-12T11:19:08.901Z,20.94
2018-06-12T11:21:37.317Z,21.08
2018-06-12T11:24:06.601Z,20.86
2018-06-12T11:26:34.952Z,21.08
2018-06-12T11:29:04.295Z,21.06
2018-06-12T11:31:32.714Z,20.95
2018-06-12T11:34:01.901Z,20.90
2018-06-12T11:36:30.249Z,20.44
2018-06-12T11:38:59.203Z,20.77
2018-06-12T11:41:27.570Z,20.86
2018-06-12T11:43:55.889Z,20.86
2018-06-12T11:46:24.216Z,21.02
2018-06-12T11:48:52.583Z,20.80
2018-06-12T11:51:20.992Z,20.95
2018-06-12T11:53:49.348Z,21.29
2018-06-12T11:56:17.661Z,21.46
2018-06-12T11:58:46.895Z,21.40
2018-06-12T12:01:15.316Z,21.48
2018-06-12T12:03:44.654Z,21.41
2018-06-12T12:06:13.988Z,21.51
2018-06-12T12:08:42.404Z,21.74
2018-06-12T12:11:11.766Z,21.25
2018-06-12T12:13:41.181Z,21.21
2018-06-12T12:16:10.455Z,21.52
2018-06-12T12:18:38.769Z,21.66
2018-06-12T12:21:08.134Z,22.13
2018-06-12T12:23:37.336Z,22.13
2018-06-12T12:26:05.777Z,22.28
2018-06-12T12:28:34.124Z,22.27
2018-06-12T12:31:02.503Z,22.05
2018-06-12T12:33:31.745Z,22.01
2018-06-12T12:36:00.069Z,21.91
2018-06-12T12:38:28.465Z,22.14
2018-06-12T12:40:57.649Z,21.80
2018-06-12T12:43:26.040Z,21.93
2018-06-12T12:45:54.599Z,22.26
2018-06-12T12:48:23.015Z,22.27
2018-06-12T12:50:51.421Z,22.41
2018-06-12T12:53:19.772Z,22.34
2018-06-12T12:55:49.001Z,22.26
2018-06-12T12:58:17.336Z,22.52
2018-06-12T13:00:45.717Z,22.71
2018-06-12T13:03:14.126Z,22.61
2018-06-12T13:05:42.436Z,22.44
2018-06-12T13:08:10.760Z,22.52
2018-06-12T13:10:40.090Z,21.81
2018-06-12T13:13:08.436Z,22.36
2018-06-12T13:15:36.772Z,22.27
2018-06-12T13:18:06.254Z,21.92
2018-06-12T13:20:34.565Z,22.22
2018-06-12T13:23:04.040Z,22.33
2018-06-12T13:25:32.417Z,22.79
2018-06-12T13:28:00.764Z,22.91
2018-06-12T13:30:29.116Z,22.86
2018-06-12T13:32:58.321Z,22.72
2018-06-12T13:35:26.716Z,22.66
2018-06-12T13:37:55.029Z,22.10
2018-06-12T13:40:23.345Z,22.23
2018-06-12T13:42:51.650Z,22.92
2018-06-12T13:45:19.989Z,23.11
2018-06-12T13:47:48.333Z,23.13
2018-06-12T13:50:16.642Z,23.14
2018-06-12T13:52:44.989Z,22.92
2018-06-12T13:55:13.301Z,22.95
2018-06-12T13:57:41.613Z,22.69
2018-06-12T14:00:09.925Z,22.78
2018-06-12T14:02:38.268Z,22.73
2018-06-12T14:05:06.582Z,22.51
2018-06-12T14:07:35.824Z,22.35
2018-06-12T14:10:04.161Z,22.28
2018-06-12T14:12:33.404Z,22.39
2018-06-12T14:15:01.718Z,22.50
2018-06-12T14:17:30.938Z,22.48
2018-06-12T14:19:59.251Z,22.77
2018-06-12T14:22:27.570Z,23.07
2018-06-12T14:24:56.793Z,23.45
2018-06-12T14:27:26.093Z,24.09
2018-06-12T14:29:55.411Z,24.12
2018-06-12T14:32:24.736Z,24.04
2018-06-12T14:34:53.969Z,24.19
2018-06-12T14:37:23.106Z,24.37
2018-06-12T14:39:51.602Z,24.94
2018-06-12T14:42:19.940Z,25.60
2018-06-12T14:44:49.159Z,26.28
2018-06-12T14:47:18.657Z,26.45
2018-06-12T14:49:48.022Z,26.58
2018-06-12T14:52:16.339Z,27.17
2018-06-12T14:54:45.555Z,26.68
2018-06-12T14:57:14.944Z,26.72
2018-06-12T14:59:44.284Z,26.48
2018-06-12T15:02:12.624Z,26.12
2018-06-12T15:04:42.012Z,27.08
2018-06-12T15:07:10.337Z,27.45
2018-06-12T15:09:39.592Z,27.99
2018-06-12T15:12:08.848Z,27.12
2018-06-12T15:14:37.173Z,27.10
2018-06-12T15:17:05.529Z,27.02
2018-06-12T15:19:34.860Z,27.11
2018-06-12T15:22:04.200Z,25.48
2018-06-12T15:24:33.444Z,24.76
2018-06-12T15:27:01.752Z,25.05
2018-06-12T15:29:30.874Z,25.63
2018-06-12T15:32:00.196Z,26.45
2018-06-12T15:34:29.366Z,26.68
2018-06-12T15:36:57.684Z,26.70
2018-06-12T15:39:26.907Z,25.59
2018-06-12T15:41:56.133Z,24.87
2018-06-12T15:44:25.377Z,24.44
2018-06-12T15:46:54.488Z,24.35
2018-06-12T15:49:23.833Z,23.41
2018-06-12T15:51:53.182Z,23.70
2018-06-12T15:54:22.372Z,23.30
2018-06-12T15:56:50.730Z,23.29
2018-06-12T15:59:19.057Z,23.17
2018-06-12T16:01:47.445Z,22.81
2018-06-12T16:04:15.859Z,22.90
2018-06-12T16:06:44.216Z,23.06
2018-06-12T16:09:12.533Z,22.58
2018-06-12T16:11:41.073Z,22.54
2018-06-12T16:14:09.397Z,22.47
2018-06-12T16:16:37.724Z,22.42
2018-06-12T16:19:06.045Z,22.11
2018-06-12T16:21:34.358Z,22.00
2018-06-12T16:24:03.565Z,21.93
2018-06-12T16:26:31.868Z,21.80
2018-06-12T16:29:00.184Z,21.62
2018-06-12T16:31:28.623Z,21.62
2018-06-12T16:33:56.988Z,21.52
2018-06-12T16:36:25.294Z,21.52
2018-06-12T16:38:54.480Z,21.19
2018-06-12T16:41:22.846Z,21.37
2018-06-12T16:43:52.016Z,21.49
2018-06-12T16:46:20.335Z,21.51
2018-06-12T16:48:49.648Z,21.67
2018-06-12T16:51:17.956Z,21.95
2018-06-12T16:53:47.184Z,22.12
2018-06-12T16:56:15.500Z,22.19
2018-06-12T16:58:43.808Z,22.11
2018-06-12T17:01:12.185Z,22.15
2018-06-12T17:03:40.545Z,22.08
2018-06-12T17:06:08.857Z,21.90
2018-06-12T17:08:37.188Z,21.76
2018-06-12T17:11:05.580Z,21.29
2018-06-12T17:13:34.933Z,21.20
2018-06-12T17:16:03.258Z,21.21
2018-06-12T17:18:31.577Z,21.09
2018-06-12T17:20:59.904Z,20.96
2018-06-12T17:23:28.267Z,21.06
2018-06-12T17:25:56.695Z,21.12
2018-06-12T17:28:25.021Z,21.20
2018-06-12T17:30:53.349Z,21.03
2018-06-12T17:33:21.818Z,20.81
2018-06-12T17:35:50.188Z,20.73
2018-06-12T17:38:19.533Z,20.84
2018-06-12T17:40:47.888Z,20.88
2018-06-12T17:43:16.241Z,20.73
2018-06-12T17:45:45.638Z,20.62
2018-06-12T17:48:14.047Z,20.63
2018-06-12T17:50:42.405Z,20.52
2018-06-12T17:53:11.489Z,20.37
2018-06-12T17:55:40.752Z,20.19
2018-06-12T17:58:12.385Z,20.03
2018-06-12T18:00:41.067Z,19.97
2018-06-12T18:03:10.397Z,19.83
2018-06-12T18:05:39.167Z,19.75
2018-06-12T18:08:09.519Z,19.68
2018-06-12T18:10:39.101Z,19.57
2018-06-12T18:13:07.866Z,19.48
2018-06-12T18:15:36.803Z,19.35
2018-06-12T18:18:06.452Z,19.17
2018-06-12T18:20:37.342Z,19.09
2018-06-12T18:23:07.216Z,18.99
2018-06-12T18:25:35.619Z,18.92
2018-06-12T18:28:04.053Z,18.74
2018-06-12T18:36:28.438Z,18.27
2018-06-12T18:38:56.957Z,18.10
2018-06-12T18:41:25.344Z,17.98
2018-06-12T18:43:53.980Z,17.90
2018-06-12T18:46:23.268Z,17.92
2018-06-12T18:48:52.290Z,17.77
2018-06-12T18:51:20.982Z,17.73
2018-06-12T18:53:50.578Z,17.61
2018-06-12T18:56:19.530Z,17.57
2018-06-12T18:58:47.983Z,17.49
2018-06-12T19:04:19.058Z,17.46
2018-06-12T19:06:47.527Z,17.44
2018-06-12T19:09:16.582Z,17.39
2018-06-12T19:14:36.838Z,17.29
2018-06-12T19:17:05.269Z,17.20
2018-06-12T19:19:33.777Z,17.06
2018-06-12T19:22:02.105Z,17.00
2018-06-12T19:24:30.557Z,16.88
2018-06-12T19:26:59.381Z,16.84
2018-06-12T19:29:27.885Z,16.76
2018-06-12T19:31:56.282Z,16.63
2018-06-12T19:34:24.970Z,16.61
2018-06-12T19:36:53.408Z,16.53
2018-06-12T19:39:21.841Z,16.49
2018-06-12T19:41:50.216Z,16.57
2018-06-12T19:44:18.681Z,16.57
2018-06-12T19:46:48.130Z,16.54
2018-06-12T19:49:16.787Z,16.59
2018-06-12T19:51:45.129Z,16.65
2018-06-12T19:54:14.260Z,16.67
2018-06-12T19:56:42.960Z,16.71
2018-06-12T19:59:11.301Z,16.70
2018-06-12T20:01:39.641Z,16.65
2018-06-12T20:04:08.072Z,16.54
2018-06-12T20:06:36.398Z,16.46
2018-06-12T20:09:07.303Z,16.29
2018-06-12T20:11:35.864Z,16.12
2018-06-12T20:14:04.337Z,15.99
2018-06-12T20:16:32.764Z,15.90
2018-06-12T20:19:01.094Z,15.79
2018-06-12T20:21:29.493Z,15.74
2018-06-12T20:23:57.859Z,15.70
2018-06-12T20:26:26.786Z,15.69
2018-06-12T20:28:55.160Z,15.67
2018-06-12T20:31:23.536Z,15.70
2018-06-12T20:33:51.953Z,15.75
2018-06-12T20:36:20.302Z,15.79
2018-06-12T20:38:48.677Z,15.83
2018-06-12T20:41:16.990Z,15.92
2018-06-12T20:43:45.313Z,16.00
2018-06-12T20:46:13.862Z,16.20
2018-06-12T20:48:42.301Z,16.27
2018-06-12T20:51:10.732Z,16.42
2018-06-12T20:53:39.110Z,16.62
2018-06-12T20:56:07.594Z,16.70
2018-06-12T20:58:35.929Z,16.52
2018-06-12T21:01:04.301Z,16.61
2018-06-12T21:03:32.676Z,16.45
2018-06-12T21:06:01.208Z,16.56
2018-06-12T21:08:29.809Z,16.62
2018-06-12T21:10:58.181Z,16.47
2018-06-12T21:13:29.125Z,16.63
2018-06-12T21:15:57.545Z,16.46
2018-06-12T21:18:37.521Z,16.36
2018-06-12T21:21:05.924Z,16.37
2018-06-12T21:23:34.295Z,16.30
2018-06-12T21:26:02.605Z,16.52
2018-06-12T21:28:30.988Z,16.36
2018-06-12T21:30:59.485Z,16.27
2018-06-12T21:33:28.837Z,16.19
2018-06-12T21:35:57.288Z,16.24
2018-06-12T21:38:25.649Z,16.38
2018-06-12T21:40:54.101Z,16.45
2018-06-12T21:43:22.408Z,16.58
2018-06-12T21:45:50.744Z,16.60
2018-06-12T21:48:19.210Z,16.30
2018-06-12T21:50:47.640Z,16.17
2018-06-12T21:53:15.961Z,16.11
2018-06-12T21:55:44.317Z,16.10
2018-06-12T21:58:12.670Z,16.11
2018-06-12T22:00:41.595Z,16.34
2018-06-12T22:03:10.179Z,16.13
2018-06-12T22:05:38.640Z,16.08
2018-06-12T22:08:07.084Z,16.07
2018-06-12T22:10:35.405Z,16.09
2018-06-12T22:13:03.806Z,16.04
2018-06-12T22:15:32.281Z,15.89
2018-06-12T22:18:00.739Z,16.00
2018-06-12T22:20:29.060Z,15.87
2018-06-12T22:22:57.417Z,15.83
2018-06-12T22:25:25.794Z,15.75
2018-06-12T22:27:54.181Z,15.72
2018-06-12T22:30:22.513Z,15.93
2018-06-12T22:32:50.857Z,16.06
2018-06-12T22:35:19.193Z,15.82
2018-06-12T22:37:47.549Z,15.83
2018-06-12T22:40:15.868Z,15.75
2018-06-12T22:42:44.193Z,15.73
2018-06-12T22:45:12.664Z,15.75
2018-06-12T22:47:40.981Z,15.89
2018-06-12T22:50:09.289Z,15.95
2018-06-12T22:52:37.668Z,15.94
2018-06-12T22:55:06.096Z,15.93
2018-06-12T22:57:34.425Z,15.82
2018-06-12T23:00:02.894Z,15.77
2018-06-12T23:02:31.227Z,15.72
2018-06-12T23:05:04.702Z,15.78
2018-06-12T23:07:33.025Z,15.74
2018-06-12T23:10:01.346Z,15.74
2018-06-12T23:12:29.730Z,15.72
2018-06-12T23:14:58.126Z,15.70
2018-06-12T23:17:26.495Z,15.62
2018-06-12T23:21:08.125Z,15.66
2018-06-12T23:23:36.569Z,15.67
2018-06-12T23:26:04.888Z,15.67
2018-06-12T23:28:33.313Z,15.60
2018-06-12T23:31:01.625Z,15.58
2018-06-12T23:33:29.945Z,15.57
2018-06-12T23:35:58.361Z,15.58
2018-06-12T23:38:26.677Z,15.62
2018-06-12T23:40:55.023Z,15.60
2018-06-12T23:43:23.340Z,15.59
2018-06-12T23:45:51.668Z,15.59
2018-06-12T23:48:20.013Z,15.56
2018-06-12T23:50:48.945Z,15.59
2018-06-12T23:53:17.261Z,15.60
2018-06-12T23:55:45.573Z,15.57
2018-06-12T23:58:13.912Z,15.51
